Hlavní strana
METAR-TAF:

METAR-TAF

Letiště :

Tanabe, Japonsko

zeměpisná šířka: 33-44N, zeměpisná délka: 135-23E, výška: 105 m

Aktuální stav počasí

Zpráva byla vytvořena před 2 hodinami a 49 minutami, v 10:00 UTC
vítr z různých směrů 1 kt
Teplota 10°C
Vlhkost vzduchu 82%
Tlak 1007 hPa
Viditelnost 10 km a více
Skoro jasno ve výšce 3000 ft
Polojasno ve výšce 5000 ft

METAR: RJBD 281000Z VRB01KT 9999 FEW030 SCT050 10/07 Q1007

Čas: 21:49 (12:49 UTC)


TAF: chybějící

Stav a předpovědi počasí z více než 4 000 letišť (zprávy METAR a TAF).

Červené a žluté tečky na mapě představují dostupné meteorologické stanice.

Když kurzor umístíte na tečku, zobrazí se název stanice.

Pak kliknutím zobrazíte stav a předpověď počasí.

Chcete-li změnit mapu, kliknutím na zelené tlačítko se znaménkem +mapu přiblížíte, kliknutím na zelené tlačítko se znaménkem – mapu oddálíte a kliknutím na zelené šipky přejdete na sousední mapy.


METAR-TAF: